Time;durP1;ratioP1;P1;durP2;ratioP2;P2;SDS_P1;SDS_P2;PMS_P1;PMS_P2;Temp;Humidity;BMP_temperature;BMP_pressure;BME280_temperature;BME280_humidity;BME280_pressure;Samples;Min_cycle;Max_cycle;Signal;HPM_P1;HPM_P2
2022/01/02 00:00:22;;;;;;;6.00;2.35;;;20.20;68.20;;;;;;10502146;28;20049;-49
2022/01/02 00:05:50;;;;;;;7.10;2.73;;;20.20;68.10;;;;;;10502014;28;20106;-50
2022/01/02 00:11:19;;;;;;;16.35;3.13;;;20.10;68.10;;;;;;10501510;28;20078;-49
2022/01/02 00:16:42;;;;;;;5.80;2.45;;;20.10;68.10;;;;;;10501533;28;20052;-49
2022/01/02 00:22:14;;;;;;;4.22;2.42;;;20.00;68.00;;;;;;10501811;28;20082;-49
2022/01/02 00:27:38;;;;;;;13.80;3.45;;;20.00;68.00;;;;;;10501047;28;20075;-49
2022/01/02 00:33:01;;;;;;;6.18;2.88;;;20.00;68.10;;;;;;10499836;28;20045;-49
2022/01/02 00:38:25;;;;;;;7.30;2.28;;;20.00;68.10;;;;;;10497745;28;20041;-48
2022/01/02 00:44:01;;;;;;;10.68;1.90;;;19.90;68.10;;;;;;10497464;28;20052;-49
2022/01/02 00:49:26;;;;;;;6.00;2.40;;;19.90;68.10;;;;;;10496663;28;20049;-49
2022/01/02 00:54:54;;;;;;;10.73;2.38;;;19.90;68.10;;;;;;10496894;28;20397;-49
2022/01/02 01:00:18;;;;;;;5.82;2.70;;;19.90;68.10;;;;;;10497230;28;20102;-49
2022/01/02 01:05:43;;;;;;;10.60;2.95;;;19.80;68.00;;;;;;10499262;28;20048;-48
2022/01/02 01:11:11;;;;;;;6.43;3.10;;;19.80;68.00;;;;;;10499070;28;20044;-48
2022/01/02 01:16:34;;;;;;;5.23;3.40;;;19.80;68.00;;;;;;10499287;28;20070;-48
2022/01/02 01:21:57;;;;;;;5.57;3.30;;;19.80;68.00;;;;;;10497696;28;20062;-48
2022/01/02 01:27:21;;;;;;;10.63;4.03;;;19.70;67.90;;;;;;10499138;28;20086;-50
2022/01/02 01:32:45;;;;;;;10.90;4.15;;;19.70;67.80;;;;;;10498416;28;20040;-49
2022/01/02 01:38:10;;;;;;;9.43;3.83;;;19.70;67.80;;;;;;10497444;28;20078;-49
2022/01/02 01:43:40;;;;;;;7.22;4.50;;;19.70;67.70;;;;;;10496035;28;20044;-48
2022/01/02 01:49:19;;;;;;;6.82;4.22;;;19.70;67.70;;;;;;10479246;28;20048;-48
2022/01/02 01:54:43;;;;;;;6.28;4.35;;;19.60;67.60;;;;;;10463856;28;20493;-49
2022/01/02 02:00:14;;;;;;;19.25;4.82;;;19.60;67.60;;;;;;10481428;28;20044;-49
2022/01/02 02:05:43;;;;;;;11.50;5.45;;;19.60;67.60;;;;;;10494724;28;20102;-48
2022/01/02 02:11:07;;;;;;;23.42;5.10;;;19.60;67.80;;;;;;10485543;28;20106;-47
2022/01/02 02:16:31;;;;;;;10.82;5.28;;;19.50;67.90;;;;;;10496485;28;20094;-48
2022/01/02 02:21:55;;;;;;;9.98;5.55;;;19.50;68.10;;;;;;10497360;28;20071;-48
2022/01/02 02:27:24;;;;;;;10.25;5.57;;;19.50;68.20;;;;;;10497247;28;20118;-48
2022/01/02 02:32:48;;;;;;;7.10;5.15;;;19.50;68.30;;;;;;10476396;28;20482;-50
2022/01/02 02:38:13;;;;;;;11.02;5.63;;;19.50;68.40;;;;;;10454636;28;20095;-48
2022/01/02 02:43:46;;;;;;;10.32;6.03;;;19.50;68.50;;;;;;10454496;28;20053;-48
2022/01/02 02:49:09;;;;;;;14.00;6.32;;;19.40;68.40;;;;;;10455857;28;20041;-49
2022/01/02 02:54:33;;;;;;;9.77;5.72;;;19.40;68.40;;;;;;10454173;28;20041;-50
2022/01/02 02:59:57;;;;;;;10.05;5.82;;;19.40;68.40;;;;;;10454234;28;20462;-48
2022/01/02 03:05:21;;;;;;;8.52;5.85;;;19.40;68.30;;;;;;10454195;28;20060;-49
2022/01/02 03:10:44;;;;;;;10.70;6.55;;;19.40;68.30;;;;;;10455084;28;20099;-50
2022/01/02 03:16:08;;;;;;;11.73;5.63;;;19.40;68.30;;;;;;10455050;28;20076;-48
2022/01/02 03:21:32;;;;;;;8.00;5.93;;;19.30;68.10;;;;;;10461318;28;20406;-48
2022/01/02 03:26:55;;;;;;;9.60;5.90;;;19.30;68.10;;;;;;10461245;28;20052;-49
2022/01/02 03:32:19;;;;;;;8.18;6.18;;;19.30;68.10;;;;;;10460888;28;20099;-48
2022/01/02 03:37:43;;;;;;;8.10;5.65;;;19.30;68.10;;;;;;10460744;28;20414;-49
2022/01/02 03:43:07;;;;;;;9.15;6.38;;;19.30;68.00;;;;;;10461504;28;20493;-48
2022/01/02 03:48:34;;;;;;;9.55;6.57;;;19.30;68.10;;;;;;10461257;28;20052;-48
2022/01/02 03:54:02;;;;;;;8.63;5.90;;;19.20;68.20;;;;;;10460515;28;20049;-49
2022/01/02 03:59:25;;;;;;;14.23;6.72;;;19.20;68.30;;;;;;10460828;28;20049;-49
2022/01/02 04:04:49;;;;;;;10.68;6.85;;;19.20;68.40;;;;;;10459676;28;20053;-48
2022/01/02 04:10:16;;;;;;;16.48;6.93;;;19.20;68.50;;;;;;10460164;28;20045;-50
2022/01/02 04:15:39;;;;;;;8.90;6.40;;;19.20;68.50;;;;;;10459239;28;20052;-47
2022/01/02 04:21:04;;;;;;;12.45;6.63;;;19.20;68.60;;;;;;10459988;28;20053;-48
2022/01/02 04:26:27;;;;;;;12.15;7.15;;;19.10;68.80;;;;;;10459972;28;20079;-48
2022/01/02 04:31:50;;;;;;;10.70;7.30;;;19.20;68.80;;;;;;10460034;28;20114;-50
2022/01/02 04:37:14;;;;;;;10.25;6.80;;;19.30;68.90;;;;;;10459815;28;20056;-49
2022/01/02 04:42:37;;;;;;;10.15;6.53;;;19.40;68.80;;;;;;10459167;28;20095;-49
2022/01/02 04:48:01;;;;;;;8.98;6.60;;;19.40;68.80;;;;;;10458510;28;20049;-48
2022/01/02 04:53:25;;;;;;;9.68;5.75;;;19.50;68.70;;;;;;10457574;28;20402;-48
2022/01/02 04:58:48;;;;;;;13.35;5.50;;;19.70;68.60;;;;;;10457583;28;20053;-49
2022/01/02 05:04:11;;;;;;;8.98;5.72;;;19.80;68.50;;;;;;10458300;28;20114;-50
2022/01/02 05:09:36;;;;;;;13.32;5.50;;;19.90;68.30;;;;;;10457344;28;20108;-49
2022/01/02 05:14:59;;;;;;;8.55;5.38;;;19.90;68.20;;;;;;10457324;28;20045;-50
2022/01/02 05:20:22;;;;;;;14.40;5.47;;;20.00;68.10;;;;;;10458089;28;20094;-50
2022/01/02 05:25:46;;;;;;;12.77;5.55;;;20.10;68.00;;;;;;10457950;28;20099;-48
2022/01/02 05:31:10;;;;;;;8.65;5.30;;;20.20;67.90;;;;;;10456411;28;20102;-49
2022/01/02 05:36:34;;;;;;;10.43;5.35;;;20.30;67.90;;;;;;10456062;28;20045;-49
2022/01/02 05:41:58;;;;;;;22.83;5.57;;;20.30;67.70;;;;;;10456681;28;20052;-49
2022/01/02 05:47:21;;;;;;;11.77;5.28;;;20.40;67.70;;;;;;10455845;28;20098;-49
2022/01/02 05:52:45;;;;;;;8.73;5.07;;;20.50;67.60;;;;;;10455476;28;20053;-48
2022/01/02 05:58:09;;;;;;;10.45;5.38;;;20.50;67.40;;;;;;10455979;28;20045;-50
2022/01/02 06:03:32;;;;;;;9.25;5.35;;;20.60;67.40;;;;;;10457119;28;20087;-48
2022/01/02 06:08:56;;;;;;;18.30;6.32;;;20.70;67.20;;;;;;10456278;28;20044;-47
2022/01/02 06:14:19;;;;;;;22.25;5.78;;;20.70;67.10;;;;;;10457000;28;20114;-49
2022/01/02 06:19:43;;;;;;;13.75;5.82;;;20.70;67.10;;;;;;10455498;28;20041;-49
2022/01/02 06:25:07;;;;;;;10.98;4.57;;;20.70;67.00;;;;;;10456374;28;20444;-48
2022/01/02 06:30:32;;;;;;;7.85;3.78;;;20.60;67.20;;;;;;10454934;28;20114;-48
2022/01/02 06:35:55;;;;;;;7.13;3.88;;;20.60;67.30;;;;;;10460033;28;20033;-48
2022/01/02 06:41:18;;;;;;;8.10;3.85;;;20.60;67.30;;;;;;10495743;28;20044;-48
2022/01/02 06:46:42;;;;;;;9.13;3.83;;;20.60;67.20;;;;;;10490225;28;20044;-49
2022/01/02 06:52:06;;;;;;;10.10;4.07;;;20.60;67.10;;;;;;10492398;28;20079;-49
2022/01/02 06:57:31;;;;;;;10.80;4.53;;;20.60;67.00;;;;;;10497461;28;20048;-49
2022/01/02 07:02:58;;;;;;;11.25;3.28;;;20.60;67.10;;;;;;10514538;28;20037;-50
2022/01/02 07:08:22;;;;;;;9.65;2.63;;;20.50;67.20;;;;;;10502778;28;20036;-49
2022/01/02 07:13:49;;;;;;;5.60;2.45;;;20.40;67.30;;;;;;10500638;28;20494;-49
2022/01/02 07:19:17;;;;;;;9.88;2.67;;;20.50;67.40;;;;;;10496879;28;20086;-49
2022/01/02 07:24:47;;;;;;;5.60;2.40;;;20.50;67.30;;;;;;10500973;28;20106;-49
2022/01/02 07:30:11;;;;;;;3.92;2.45;;;20.50;67.20;;;;;;10473680;28;20044;-49
2022/01/02 07:35:34;;;;;;;5.45;2.85;;;20.40;67.20;;;;;;10503096;28;20049;-49
2022/01/02 07:41:18;;;;;;;7.82;2.95;;;20.40;67.20;;;;;;10499583;28;20439;-49
2022/01/02 07:46:41;;;;;;;9.30;3.15;;;20.40;67.30;;;;;;10502878;28;20057;-50
2022/01/02 07:52:06;;;;;;;8.10;3.03;;;20.40;67.30;;;;;;10500535;28;20044;-48
2022/01/02 07:57:30;;;;;;;8.40;2.80;;;20.40;67.30;;;;;;10502762;28;20477;-49
2022/01/02 08:02:53;;;;;;;9.45;4.72;;;20.30;67.10;;;;;;10502318;28;20044;-48
2022/01/02 08:08:17;;;;;;;6.40;4.70;;;20.30;67.10;;;;;;10502022;28;20048;-50
2022/01/02 08:13:39;;;;;;;6.65;4.18;;;20.30;67.10;;;;;;10501078;28;20052;-48
2022/01/02 08:19:05;;;;;;;6.13;3.88;;;20.30;67.10;;;;;;10501726;28;20106;-48
2022/01/02 08:24:28;;;;;;;5.80;3.90;;;20.20;67.10;;;;;;10501629;28;20098;-48
2022/01/02 08:29:52;;;;;;;6.63;3.95;;;20.20;67.10;;;;;;10501381;28;20060;-49
2022/01/02 08:35:15;;;;;;;9.50;4.82;;;20.20;67.10;;;;;;10500987;28;20045;-48
2022/01/02 08:40:40;;;;;;;7.03;4.10;;;20.20;67.10;;;;;;10500477;28;20045;-50
2022/01/02 08:46:03;;;;;;;9.25;4.55;;;20.20;67.20;;;;;;10500512;28;20052;-49
2022/01/02 08:51:27;;;;;;;8.70;4.18;;;20.10;67.30;;;;;;10500998;28;20044;-50
2022/01/02 08:56:51;;;;;;;7.57;3.90;;;20.10;67.50;;;;;;10500035;28;20044;-49
2022/01/02 09:02:14;;;;;;;8.18;4.03;;;20.10;67.70;;;;;;10514073;28;20036;-50
2022/01/02 09:07:38;;;;;;;5.70;3.50;;;20.10;67.80;;;;;;10499658;28;20567;-49
2022/01/02 09:13:01;;;;;;;18.88;4.75;;;20.10;67.80;;;;;;10499721;28;20416;-49
2022/01/02 09:18:24;;;;;;;6.85;3.80;;;20.10;67.90;;;;;;10499019;28;20102;-50
2022/01/02 09:23:47;;;;;;;5.97;3.65;;;20.10;68.00;;;;;;10499691;28;20497;-49
2022/01/02 09:29:10;;;;;;;7.13;3.85;;;20.10;68.00;;;;;;10498230;28;20052;-49
2022/01/02 09:34:34;;;;;;;10.25;4.10;;;20.00;68.00;;;;;;10498889;28;20036;-51
2022/01/02 09:39:57;;;;;;;13.27;4.20;;;20.00;68.00;;;;;;10499113;28;20048;-49
2022/01/02 09:45:21;;;;;;;5.95;3.65;;;20.00;68.10;;;;;;10498604;28;20387;-48
2022/01/02 09:50:47;;;;;;;8.93;3.83;;;20.00;68.10;;;;;;10498668;28;20083;-49
2022/01/02 09:56:10;;;;;;;7.03;3.70;;;20.00;68.10;;;;;;10497993;28;20094;-49
2022/01/02 10:01:22;;;;;;;7.93;3.58;;;19.90;68.00;;;;;;10497876;28;20485;-48
2022/01/02 10:06:40;;;;;;;5.93;3.65;;;19.90;68.00;;;;;;10497921;28;20045;-49
2022/01/02 10:11:48;;;;;;;5.45;3.60;;;19.90;68.00;;;;;;10497587;28;20049;-49
2022/01/02 10:16:53;;;;;;;6.38;3.63;;;19.90;67.90;;;;;;10497642;28;20570;-51
2022/01/02 10:22:03;;;;;;;7.72;4.00;;;19.90;68.00;;;;;;10497355;28;20134;-50
2022/01/02 10:27:15;;;;;;;7.00;3.70;;;19.90;67.90;;;;;;10499142;28;20114;-49
2022/01/02 10:32:41;;;;;;;9.07;4.00;;;19.90;67.90;;;;;;10506296;28;20090;-48
2022/01/02 10:37:57;;;;;;;6.32;3.60;;;19.90;67.90;;;;;;10505970;28;20045;-49
2022/01/02 10:43:05;;;;;;;7.13;3.50;;;19.90;67.90;;;;;;10505417;28;20055;-50
2022/01/02 10:48:12;;;;;;;6.78;3.88;;;19.80;67.80;;;;;;10505562;28;20478;-49
2022/01/02 10:53:18;;;;;;;6.85;3.75;;;19.80;67.80;;;;;;10504251;28;20037;-48
2022/01/02 10:58:24;;;;;;;7.63;3.65;;;19.80;67.80;;;;;;10504739;28;20481;-49
2022/01/02 11:03:30;;;;;;;8.10;4.00;;;19.80;67.70;;;;;;10504708;28;20433;-49
2022/01/02 11:08:40;;;;;;;6.82;4.22;;;19.80;67.70;;;;;;10504740;28;20094;-49
2022/01/02 11:13:45;;;;;;;8.82;3.58;;;19.90;67.80;;;;;;10505517;28;20493;-50
2022/01/02 11:18:51;;;;;;;8.40;4.03;;;19.80;67.70;;;;;;10504626;28;20515;-49
2022/01/02 11:24:12;;;;;;;6.53;4.18;;;19.80;67.70;;;;;;10503908;28;20413;-48
2022/01/02 11:29:16;;;;;;;7.40;4.43;;;19.80;67.60;;;;;;10502615;28;20045;-49
2022/01/02 11:34:32;;;;;;;11.73;3.60;;;19.80;67.60;;;;;;10499456;28;20114;-50
2022/01/02 11:40:09;;;;;;;14.73;4.17;;;19.70;67.60;;;;;;10501431;28;20048;-49
2022/01/02 11:45:23;;;;;;;4.60;2.80;;;19.70;67.60;;;;;;10494167;28;20052;-48
2022/01/02 11:50:32;;;;;;;7.30;3.15;;;19.70;67.60;;;;;;10503177;28;20382;-49
2022/01/02 11:55:38;;;;;;;5.85;3.05;;;19.70;67.60;;;;;;10502499;28;20044;-50
2022/01/02 12:00:47;;;;;;;5.82;2.97;;;19.60;67.60;;;;;;10503490;28;20066;-49
2022/01/02 12:06:24;;;;;;;5.82;3.45;;;19.60;67.60;;;;;;10502063;28;20121;-49
2022/01/02 12:11:32;;;;;;;6.57;3.72;;;19.60;67.60;;;;;;10502303;28;20057;-49
2022/01/02 12:16:42;;;;;;;6.97;3.40;;;19.50;67.50;;;;;;10502236;28;20047;-49
2022/01/02 12:22:13;;;;;;;5.90;3.08;;;19.50;67.50;;;;;;10516230;28;20037;-48
2022/01/02 12:27:18;;;;;;;4.90;3.28;;;19.50;67.50;;;;;;10501862;28;20048;-49
2022/01/02 12:32:23;;;;;;;8.35;3.85;;;19.50;67.50;;;;;;10499770;28;20060;-48
2022/01/02 12:37:29;;;;;;;7.95;3.50;;;19.50;67.60;;;;;;10501278;28;20048;-49
2022/01/02 12:42:34;;;;;;;5.50;3.00;;;19.50;67.60;;;;;;10500636;28;20386;-49
2022/01/02 12:47:51;;;;;;;6.82;3.67;;;19.50;67.60;;;;;;10499216;28;20040;-49
2022/01/02 12:52:58;;;;;;;17.95;3.83;;;19.40;67.50;;;;;;10499138;28;20102;-50
2022/01/02 12:58:05;;;;;;;7.60;4.00;;;19.40;67.50;;;;;;10500166;28;20049;-49
2022/01/02 13:03:10;;;;;;;6.18;3.75;;;19.40;67.50;;;;;;10499835;28;20094;-49
2022/01/02 13:08:23;;;;;;;6.97;3.67;;;19.40;67.60;;;;;;10500482;28;20044;-49
2022/01/02 13:13:32;;;;;;;7.32;4.45;;;19.40;67.60;;;;;;10499362;28;20517;-49
2022/01/02 13:18:39;;;;;;;6.93;3.67;;;19.40;67.60;;;;;;10499709;28;20106;-50
2022/01/02 13:23:43;;;;;;;6.75;4.13;;;19.40;67.60;;;;;;10499088;28;20067;-49
2022/01/02 13:28:48;;;;;;;8.43;4.40;;;19.30;67.50;;;;;;10498546;28;20490;-50
2022/01/02 13:33:53;;;;;;;10.93;4.18;;;19.30;68.20;;;;;;10498400;28;20425;-50
2022/01/02 13:38:59;;;;;;;5.22;3.47;;;19.30;67.50;;;;;;10495376;28;20033;-49
2022/01/02 13:44:17;;;;;;;7.13;3.35;;;19.30;67.60;;;;;;10497792;28;20512;-50
2022/01/02 13:49:52;;;;;;;11.33;4.10;;;19.30;67.70;;;;;;10498079;28;20448;-49
2022/01/02 13:55:08;;;;;;;6.80;3.30;;;19.30;67.70;;;;;;10496305;28;20048;-50
2022/01/02 14:00:21;;;;;;;12.57;4.15;;;19.20;67.70;;;;;;10510908;28;20110;-49
2022/01/02 14:05:44;;;;;;;13.05;4.22;;;19.20;67.70;;;;;;10497606;28;20048;-49
2022/01/02 14:11:13;;;;;;;12.40;4.22;;;19.30;67.60;;;;;;10497912;28;20071;-50
2022/01/02 14:21:40;;;;;;;6.32;3.88;;;19.50;67.30;;;;;;10497680;28;20543;-49
2022/01/02 14:26:47;;;;;;;6.32;4.00;;;19.70;67.00;;;;;;10497101;28;20122;-51
2022/01/02 14:31:52;;;;;;;5.97;3.70;;;19.80;66.80;;;;;;10497340;28;20049;-50
2022/01/02 14:36:57;;;;;;;7.25;3.67;;;20.00;67.20;;;;;;10497167;28;20397;-49
2022/01/02 14:42:03;;;;;;;6.50;3.30;;;20.10;66.50;;;;;;10497036;28;20049;-49
2022/01/02 14:47:13;;;;;;;5.63;3.45;;;20.20;66.30;;;;;;10497395;28;20045;-50
2022/01/02 14:52:18;;;;;;;6.03;3.47;;;20.40;66.20;;;;;;10497133;28;20460;-50
2022/01/02 14:57:23;;;;;;;4.40;2.75;;;20.40;66.00;;;;;;10496764;28;20161;-50
2022/01/02 15:02:28;;;;;;;4.13;2.88;;;20.50;65.90;;;;;;10497266;28;20056;-49
2022/01/02 15:07:33;;;;;;;4.35;2.83;;;20.60;65.80;;;;;;10496599;28;20556;-51
2022/01/02 15:12:39;;;;;;;8.73;3.70;;;20.70;65.90;;;;;;10496416;28;20110;-49
2022/01/02 15:17:44;;;;;;;5.00;2.80;;;20.70;65.90;;;;;;10503407;28;20048;-49
2022/01/02 15:22:49;;;;;;;4.60;2.70;;;20.70;65.90;;;;;;10504735;28;20059;-55
2022/01/02 15:27:54;;;;;;;5.13;3.10;;;20.70;66.00;;;;;;10503680;28;20102;-51
2022/01/02 15:33:01;;;;;;;7.95;2.80;;;20.80;66.00;;;;;;10504390;28;20044;-52
2022/01/02 15:38:05;;;;;;;4.78;2.80;;;20.80;66.00;;;;;;10503595;28;20040;-55
2022/01/02 15:43:10;;;;;;;7.57;2.92;;;20.80;65.90;;;;;;10503453;28;20048;-51
2022/01/02 15:48:14;;;;;;;5.78;2.85;;;20.80;65.90;;;;;;10503121;28;20053;-51
2022/01/02 15:53:19;;;;;;;4.60;2.72;;;20.90;66.00;;;;;;10503185;28;20055;-51
2022/01/02 15:58:23;;;;;;;4.90;3.00;;;20.90;66.00;;;;;;10503247;28;20044;-51
2022/01/02 16:03:28;;;;;;;7.45;3.20;;;20.80;66.00;;;;;;10503331;28;20109;-50
2022/01/02 16:08:32;;;;;;;5.78;2.78;;;20.90;66.10;;;;;;10502815;28;20052;-54
2022/01/02 16:13:39;;;;;;;9.70;2.70;;;20.90;66.20;;;;;;10502501;28;20102;-51
2022/01/02 16:18:43;;;;;;;4.38;2.53;;;20.80;66.10;;;;;;10502178;28;20049;-53
2022/01/02 16:24:02;;;;;;;6.85;3.00;;;20.80;66.30;;;;;;10501490;28;20535;-52
2022/01/02 16:29:06;;;;;;;8.55;2.95;;;20.80;66.30;;;;;;10502489;28;20427;-54
2022/01/02 16:34:10;;;;;;;5.80;2.58;;;20.80;66.30;;;;;;10502528;28;20436;-50
2022/01/02 16:39:14;;;;;;;5.03;2.92;;;20.80;66.40;;;;;;10500925;28;20044;-53
2022/01/02 16:44:18;;;;;;;4.55;2.67;;;20.80;66.30;;;;;;10501907;28;20048;-52
2022/01/02 16:49:22;;;;;;;9.07;3.53;;;20.80;66.40;;;;;;10500589;28;20414;-52
2022/01/02 16:54:26;;;;;;;5.07;2.92;;;20.70;66.50;;;;;;10501111;28;20049;-51
2022/01/02 16:59:31;;;;;;;4.43;2.85;;;20.70;66.50;;;;;;10499877;28;20415;-55
2022/01/02 17:04:35;;;;;;;7.53;3.42;;;20.70;66.60;;;;;;10500562;28;20079;-54
2022/01/02 17:09:39;;;;;;;6.25;3.85;;;20.60;66.60;;;;;;10499479;28;20474;-51
2022/01/02 17:14:43;;;;;;;8.70;4.20;;;20.60;66.60;;;;;;10499439;28;20543;-51
2022/01/02 17:19:48;;;;;;;5.80;3.65;;;20.60;66.70;;;;;;10499286;28;20386;-54
2022/01/02 17:24:53;;;;;;;7.15;4.00;;;20.60;66.80;;;;;;10499620;28;20048;-54
2022/01/02 17:29:58;;;;;;;9.15;3.85;;;20.60;66.80;;;;;;10499181;28;20036;-54
2022/01/02 17:35:03;;;;;;;7.65;4.28;;;20.60;66.80;;;;;;10499012;28;20070;-55
2022/01/02 17:40:10;;;;;;;11.55;4.10;;;20.50;66.80;;;;;;10498574;28;20094;-51
2022/01/02 17:45:15;;;;;;;6.15;3.92;;;20.50;66.80;;;;;;10498428;28;20048;-53
2022/01/02 17:50:19;;;;;;;6.20;3.95;;;20.50;67.00;;;;;;10498278;28;20044;-52
2022/01/02 17:55:29;;;;;;;9.68;4.50;;;20.40;66.90;;;;;;10497134;28;20086;-53
2022/01/02 18:00:44;;;;;;;6.53;4.00;;;20.50;67.10;;;;;;10498441;28;20098;-53
2022/01/02 18:05:49;;;;;;;6.32;3.75;;;20.70;67.00;;;;;;10497346;28;20049;-54
2022/01/02 18:10:53;;;;;;;8.77;4.10;;;20.80;66.90;;;;;;10497752;28;20417;-50
2022/01/02 18:15:58;;;;;;;8.27;3.78;;;20.90;66.70;;;;;;10496701;28;20113;-51
2022/01/02 18:21:03;;;;;;;7.10;4.05;;;21.00;66.50;;;;;;10497636;28;20383;-51
2022/01/02 18:26:11;;;;;;;7.03;3.97;;;21.10;66.40;;;;;;10497836;28;20088;-54
2022/01/02 18:31:17;;;;;;;8.10;3.87;;;21.20;66.30;;;;;;10497760;28;20048;-53
2022/01/02 18:36:24;;;;;;;6.13;3.60;;;21.30;66.10;;;;;;10497334;28;20302;-52
2022/01/02 18:41:29;;;;;;;7.40;3.63;;;21.40;66.00;;;;;;10482957;28;20048;-55
2022/01/02 18:46:34;;;;;;;6.78;3.47;;;21.50;65.90;;;;;;10485739;28;20052;-55
2022/01/02 18:51:40;;;;;;;5.47;3.17;;;21.50;65.70;;;;;;10504198;28;20052;-54
2022/01/02 18:56:45;;;;;;;6.97;2.83;;;21.60;65.70;;;;;;10504848;28;20048;-54
2022/01/02 19:01:49;;;;;;;3.05;2.10;;;21.70;65.90;;;;;;10504703;28;20049;-52
2022/01/02 19:06:55;;;;;;;2.92;1.85;;;21.70;65.90;;;;;;10505367;28;20099;-51
2022/01/02 19:12:05;;;;;;;2.70;1.52;;;21.70;65.90;;;;;;10503936;28;20505;-54
2022/01/02 19:17:11;;;;;;;2.97;1.50;;;21.80;65.70;;;;;;10504119;28;20494;-53
2022/01/02 19:22:20;;;;;;;1.60;1.17;;;21.90;65.40;;;;;;10503904;28;20045;-54
2022/01/02 19:27:25;;;;;;;1.10;0.90;;;22.00;65.20;;;;;;10504388;28;20486;-52
2022/01/02 19:32:30;;;;;;;2.38;1.00;;;22.00;64.90;;;;;;10503736;28;20555;-55
2022/01/02 19:37:35;;;;;;;1.75;1.33;;;22.20;64.70;;;;;;10503609;28;20041;-54
2022/01/02 19:42:40;;;;;;;3.28;1.83;;;22.20;64.50;;;;;;10503911;28;20055;-54
2022/01/02 19:47:45;;;;;;;3.80;1.80;;;22.10;64.60;;;;;;10502923;28;20094;-53
2022/01/02 19:52:51;;;;;;;5.45;1.77;;;22.10;64.60;;;;;;10502648;28;20497;-54
2022/01/02 19:57:56;;;;;;;3.50;2.00;;;22.20;64.30;;;;;;10502699;28;20094;-51
2022/01/02 20:03:01;;;;;;;5.63;1.77;;;22.10;65.80;;;;;;10501765;28;20052;-51
2022/01/02 20:08:06;;;;;;;3.55;1.40;;;22.10;66.30;;;;;;10502218;28;20110;-52
2022/01/02 20:13:11;;;;;;;2.10;1.60;;;22.10;66.40;;;;;;10502425;28;20057;-53
2022/01/02 20:18:15;;;;;;;1.58;1.10;;;22.10;66.40;;;;;;10501860;28;20544;-51
2022/01/02 20:23:20;;;;;;;1.23;0.95;;;22.10;66.60;;;;;;10501454;28;20048;-51
2022/01/02 20:28:25;;;;;;;1.23;0.98;;;22.10;66.50;;;;;;10501578;28;20397;-53
2022/01/02 20:33:31;;;;;;;1.55;1.25;;;22.00;66.50;;;;;;10501230;28;20056;-56
2022/01/02 20:38:37;;;;;;;13.73;2.45;;;22.00;66.60;;;;;;10500911;28;20448;-50
2022/01/02 20:43:41;;;;;;;16.25;2.20;;;21.90;66.50;;;;;;10500503;28;20048;-54
2022/01/02 20:48:46;;;;;;;25.08;2.97;;;21.70;66.80;;;;;;10500698;28;20378;-54
2022/01/02 20:53:50;;;;;;;6.85;2.97;;;21.60;66.90;;;;;;10500232;28;20413;-53
2022/01/02 20:58:55;;;;;;;9.15;2.50;;;21.50;67.00;;;;;;10500647;28;20049;-53
2022/01/02 21:03:59;;;;;;;6.03;2.42;;;21.50;67.60;;;;;;10499899;28;20397;-51
2022/01/02 21:09:04;;;;;;;9.60;2.10;;;21.40;67.00;;;;;;10499815;28;20103;-51
2022/01/02 21:14:08;;;;;;;5.60;2.17;;;21.40;67.10;;;;;;10498335;28;20052;-53
2022/01/02 21:19:15;;;;;;;3.75;2.42;;;21.40;67.10;;;;;;10499219;28;20049;-54
2022/01/02 21:24:20;;;;;;;8.23;2.65;;;21.30;67.10;;;;;;10498542;28;20045;-51
2022/01/02 21:29:25;;;;;;;4.65;2.60;;;21.30;67.10;;;;;;10498768;28;20057;-49
2022/01/02 21:34:30;;;;;;;4.00;2.50;;;21.30;67.20;;;;;;10498362;28;20056;-50
2022/01/02 21:39:35;;;;;;;5.90;2.45;;;21.20;67.20;;;;;;10498426;28;20048;-51
2022/01/02 21:44:41;;;;;;;8.50;2.55;;;21.20;67.20;;;;;;10497678;28;20048;-53
2022/01/02 21:49:47;;;;;;;3.95;2.47;;;21.10;67.20;;;;;;10498455;28;20102;-50
2022/01/02 21:54:52;;;;;;;9.05;2.90;;;21.20;67.20;;;;;;10498278;28;20079;-51
2022/01/02 21:59:57;;;;;;;4.10;2.25;;;21.20;67.30;;;;;;10498853;28;20049;-51
2022/01/02 22:05:02;;;;;;;3.47;2.33;;;21.10;67.30;;;;;;10498641;28;20040;-52
2022/01/02 22:10:09;;;;;;;3.03;2.40;;;21.10;67.30;;;;;;10497653;28;20048;-54
2022/01/02 22:15:14;;;;;;;5.35;2.70;;;21.00;67.30;;;;;;10497682;28;20113;-52
2022/01/02 22:20:19;;;;;;;2.75;2.35;;;21.00;67.30;;;;;;10497398;28;20098;-50
2022/01/02 22:25:25;;;;;;;4.75;2.63;;;21.00;67.20;;;;;;10497355;28;20106;-49
2022/01/02 22:30:34;;;;;;;4.90;2.13;;;21.00;67.20;;;;;;10497551;28;20443;-50
2022/01/02 22:35:40;;;;;;;4.45;2.03;;;20.90;67.20;;;;;;10497475;28;20049;-52
2022/01/02 22:40:46;;;;;;;5.97;2.30;;;20.90;67.30;;;;;;10497192;28;20044;-55
2022/01/02 22:45:55;;;;;;;4.95;2.20;;;20.90;67.30;;;;;;10497180;28;20489;-51
2022/01/02 22:51:04;;;;;;;2.97;1.80;;;20.80;67.20;;;;;;10497614;28;20543;-53
2022/01/02 22:56:14;;;;;;;3.30;2.05;;;20.80;67.20;;;;;;10497083;28;20056;-51
2022/01/02 23:01:19;;;;;;;3.22;2.15;;;20.80;67.20;;;;;;10497302;28;20090;-52
2022/01/02 23:06:25;;;;;;;3.55;2.05;;;20.80;67.20;;;;;;10497545;28;20040;-51
2022/01/02 23:11:30;;;;;;;2.78;1.90;;;20.70;67.10;;;;;;10496364;28;20106;-50
2022/01/02 23:16:37;;;;;;;2.70;2.00;;;20.70;67.10;;;;;;10496435;28;20048;-50
2022/01/02 23:21:51;;;;;;;6.70;1.63;;;20.70;67.10;;;;;;10496280;28;20049;-52
2022/01/02 23:26:56;;;;;;;2.30;1.70;;;20.70;67.10;;;;;;10496236;28;20048;-51
2022/01/02 23:32:01;;;;;;;2.13;1.60;;;20.70;67.10;;;;;;10495957;28;20413;-50
2022/01/02 23:37:08;;;;;;;5.65;1.88;;;20.60;67.00;;;;;;10501286;28;20062;-50
2022/01/02 23:42:14;;;;;;;13.13;1.63;;;20.60;67.00;;;;;;10503120;28;20049;-49
2022/01/02 23:47:20;;;;;;;16.02;2.22;;;20.60;67.10;;;;;;10502723;28;20106;-55
2022/01/02 23:52:41;;;;;;;2.95;1.60;;;20.60;67.20;;;;;;10503028;28;20386;-51
2022/01/02 23:57:51;;;;;;;7.47;1.92;;;20.50;67.20;;;;;;10503260;28;20470;-51
